Time;durP1;ratioP1;P1;durP2;ratioP2;P2;SDS_P1;SDS_P2;PMS_P1;PMS_P2;Temp;Humidity;BMP_temperature;BMP_pressure;BME280_temperature;BME280_humidity;BME280_pressure;Samples;Min_cycle;Max_cycle;Signal;HPM_P1;HPM_P2
2020/12/14 00:00:49;;;;;;;8.25;4.35;;;5.90;92.90;;;;;;5014755;28;20064;-91
2020/12/14 00:03:15;;;;;;;7.38;3.90;;;5.90;92.90;;;;;;5034964;28;20041;-91
2020/12/14 00:05:41;;;;;;;7.25;4.03;;;5.90;92.70;;;;;;5030276;28;20508;-91
2020/12/14 00:08:07;;;;;;;9.60;3.58;;;6.00;92.50;;;;;;5030798;28;20164;-92
2020/12/14 00:10:33;;;;;;;4.53;3.42;;;5.90;92.60;;;;;;5031011;28;20167;-93
2020/12/14 00:13:19;;;;;;;7.00;3.90;;;6.00;92.60;;;;;;5030006;28;20045;-92
2020/12/14 00:15:45;;;;;;;6.57;3.63;;;5.90;92.70;;;;;;5010667;28;20046;-91
2020/12/14 00:18:11;;;;;;;5.50;3.00;;;5.90;92.60;;;;;;5005860;28;20438;-92
2020/12/14 00:20:37;;;;;;;12.77;3.70;;;5.90;92.60;;;;;;5030343;28;20045;-92
2020/12/14 00:23:03;;;;;;;11.73;4.28;;;5.90;92.60;;;;;;5031124;28;20073;-92
2020/12/14 00:25:29;;;;;;;6.00;3.47;;;6.00;92.80;;;;;;5029922;28;20045;-88
2020/12/14 00:27:57;;;;;;;7.75;3.85;;;6.00;92.40;;;;;;5033048;28;20053;-89
2020/12/14 00:30:23;;;;;;;7.05;3.30;;;5.90;92.60;;;;;;5030264;28;20079;-90
2020/12/14 00:32:49;;;;;;;8.35;3.60;;;5.90;92.60;;;;;;5029701;28;20485;-90
2020/12/14 00:35:35;;;;;;;11.18;3.67;;;5.90;92.60;;;;;;5030097;28;20053;-92
2020/12/14 00:38:01;;;;;;;9.52;3.90;;;6.00;92.50;;;;;;5030648;28;20045;-92
2020/12/14 00:40:29;;;;;;;9.50;3.67;;;5.90;92.60;;;;;;5031056;28;20049;-89
2020/12/14 00:42:58;;;;;;;4.88;2.88;;;5.90;92.60;;;;;;5058314;28;20091;-90
2020/12/14 00:45:24;;;;;;;6.53;3.20;;;6.10;92.40;;;;;;5066176;28;20450;-89
2020/12/14 00:48:10;;;;;;;5.95;3.63;;;6.00;92.40;;;;;;5050532;28;20060;-91
2020/12/14 00:50:36;;;;;;;9.43;3.50;;;5.90;92.50;;;;;;5049131;28;20045;-90
2020/12/14 00:53:02;;;;;;;8.25;3.00;;;6.00;92.30;;;;;;5046852;28;20407;-90
2020/12/14 00:55:27;;;;;;;14.75;5.30;;;6.00;92.40;;;;;;5038819;28;20048;-90
2020/12/14 00:58:13;;;;;;;7.47;3.30;;;6.00;92.30;;;;;;5020710;28;20045;-91
2020/12/14 01:00:39;;;;;;;6.90;3.38;;;6.00;92.10;;;;;;5064932;28;20103;-89
2020/12/14 01:03:05;;;;;;;4.70;2.58;;;6.00;92.10;;;;;;5048182;28;20037;-89
2020/12/14 01:05:51;;;;;;;13.25;3.38;;;6.10;92.20;;;;;;5028864;28;20553;-88
2020/12/14 01:08:21;;;;;;;6.22;3.10;;;6.00;92.10;;;;;;5074253;28;20467;-90
2020/12/14 01:11:06;;;;;;;9.55;3.63;;;6.10;92.30;;;;;;5049754;28;20053;-90
2020/12/14 01:13:52;;;;;;;7.28;2.88;;;6.00;92.20;;;;;;5034898;28;20052;-90
2020/12/14 01:16:39;;;;;;;9.15;2.88;;;6.00;92.20;;;;;;5031895;28;20099;-89
2020/12/14 01:19:24;;;;;;;6.35;2.88;;;6.00;92.10;;;;;;5021692;28;20783;-90
2020/12/14 01:21:50;;;;;;;10.93;3.75;;;6.10;92.40;;;;;;5063297;28;20045;-90
2020/12/14 01:24:36;;;;;;;4.38;2.90;;;6.10;92.40;;;;;;5035449;28;20135;-92
2020/12/14 01:27:02;;;;;;;10.65;4.07;;;6.00;93.00;;;;;;5066201;28;20124;-91
2020/12/14 01:29:27;;;;;;;9.85;3.40;;;5.90;93.80;;;;;;5048030;28;20046;-91
2020/12/14 01:31:53;;;;;;;8.73;3.13;;;5.90;94.30;;;;;;5045233;28;20037;-92
2020/12/14 01:34:39;;;;;;;11.80;3.80;;;5.80;94.50;;;;;;5031224;28;20068;-89
2020/12/14 01:37:10;;;;;;;8.25;3.45;;;5.90;94.40;;;;;;5037853;28;20060;-89
2020/12/14 01:39:36;;;;;;;7.10;3.88;;;5.80;94.20;;;;;;5019485;28;20056;-90
2020/12/14 01:42:02;;;;;;;11.88;3.95;;;5.80;94.50;;;;;;5042978;28;20409;-91
2020/12/14 01:44:51;;;;;;;7.75;3.58;;;5.80;94.60;;;;;;5036142;28;20071;-91
2020/12/14 01:47:34;;;;;;;9.05;3.65;;;5.80;94.80;;;;;;5045007;28;20480;-91
2020/12/14 01:50:00;;;;;;;9.80;3.30;;;5.80;94.70;;;;;;5065526;28;20086;-92
2020/12/14 01:52:47;;;;;;;7.93;3.58;;;5.80;94.70;;;;;;5033382;28;20049;-91
2020/12/14 01:55:40;;;;;;;8.93;3.70;;;5.80;94.80;;;;;;5039579;28;20044;-92
2020/12/14 01:58:31;;;;;;;11.10;2.40;;;5.80;94.90;;;;;;5036936;28;20044;-91
2020/12/14 02:00:57;;;;;;;7.43;3.60;;;5.80;94.90;;;;;;5062446;28;20093;-91
2020/12/14 02:03:25;;;;;;;7.47;3.47;;;5.80;95.20;;;;;;5037357;28;20496;-91
2020/12/14 02:06:11;;;;;;;10.65;3.53;;;5.80;95.00;;;;;;5035760;28;20041;-90
2020/12/14 02:08:38;;;;;;;7.82;3.65;;;5.80;95.20;;;;;;5031227;28;20059;-91
2020/12/14 02:11:06;;;;;;;9.20;4.63;;;5.80;95.50;;;;;;5048853;28;20573;-90
2020/12/14 02:13:34;;;;;;;7.43;3.80;;;5.80;95.50;;;;;;5033370;28;20451;-89
2020/12/14 02:16:00;;;;;;;8.15;4.30;;;5.80;95.80;;;;;;5029634;28;20045;-89
2020/12/14 02:18:26;;;;;;;13.95;3.95;;;5.80;95.90;;;;;;5057443;28;20041;-93
2020/12/14 02:20:52;;;;;;;10.30;3.90;;;5.80;96.00;;;;;;5052029;28;20059;-92
2020/12/14 02:23:37;;;;;;;13.00;4.70;;;5.80;96.00;;;;;;5034736;28;20048;-93
2020/12/14 02:26:03;;;;;;;14.38;4.55;;;5.80;96.10;;;;;;5053879;28;20055;-93
2020/12/14 02:28:49;;;;;;;12.05;4.22;;;5.80;96.20;;;;;;5054714;28;20095;-90
2020/12/14 02:31:15;;;;;;;11.38;4.50;;;5.80;96.00;;;;;;5048668;28;20052;-91
2020/12/14 02:33:41;;;;;;;9.50;3.22;;;5.80;96.00;;;;;;5056910;28;20076;-91
2020/12/14 02:36:07;;;;;;;9.38;3.92;;;5.80;95.90;;;;;;5063458;28;20041;-91
2020/12/14 02:38:36;;;;;;;8.90;3.90;;;5.80;95.80;;;;;;5067640;28;20496;-90
2020/12/14 02:41:01;;;;;;;10.50;4.28;;;5.80;95.70;;;;;;5066053;28;20079;-90
2020/12/14 02:43:47;;;;;;;15.55;3.80;;;5.90;95.70;;;;;;5068684;28;20152;-90
2020/12/14 02:46:13;;;;;;;12.52;3.88;;;5.80;95.70;;;;;;5017659;28;20568;-88
2020/12/14 02:48:59;;;;;;;9.55;3.60;;;5.80;95.80;;;;;;5033037;28;20131;-89
2020/12/14 02:51:25;;;;;;;14.88;4.22;;;5.80;95.60;;;;;;5067919;28;20436;-90
2020/12/14 02:53:51;;;;;;;10.77;3.50;;;5.80;95.60;;;;;;5046211;28;20049;-91
2020/12/14 02:56:19;;;;;;;10.60;3.75;;;5.80;95.70;;;;;;5075406;28;20044;-90
2020/12/14 02:58:45;;;;;;;12.18;3.75;;;5.90;95.50;;;;;;5051346;28;20051;-90
2020/12/14 03:01:31;;;;;;;9.55;3.63;;;5.90;95.40;;;;;;5054485;28;20046;-90
2020/12/14 03:03:57;;;;;;;12.80;3.63;;;5.90;95.20;;;;;;5048704;28;20059;-91
2020/12/14 03:06:22;;;;;;;9.90;3.55;;;5.90;95.10;;;;;;5059697;28;20037;-90
2020/12/14 03:09:09;;;;;;;9.25;3.97;;;6.00;95.10;;;;;;5036578;28;20046;-90
2020/12/14 03:11:38;;;;;;;9.20;3.00;;;6.00;94.80;;;;;;5033382;28;20053;-91
2020/12/14 03:14:05;;;;;;;7.85;3.90;;;6.10;94.80;;;;;;5046316;28;20084;-89
2020/12/14 03:16:31;;;;;;;6.95;3.65;;;6.00;94.80;;;;;;5052240;28;20045;-90
2020/12/14 03:18:57;;;;;;;11.80;3.13;;;6.10;94.70;;;;;;5052951;28;20106;-91
2020/12/14 03:21:43;;;;;;;8.52;3.35;;;6.10;94.70;;;;;;5029427;28;20057;-92
2020/12/14 03:24:09;;;;;;;9.75;3.25;;;6.20;94.40;;;;;;5046666;28;20051;-92
2020/12/14 03:26:58;;;;;;;14.02;3.28;;;6.20;94.20;;;;;;5041190;28;20051;-89
2020/12/14 03:29:24;;;;;;;11.48;3.42;;;6.20;94.20;;;;;;5051635;28;20554;-90
2020/12/14 03:31:50;;;;;;;7.07;3.25;;;6.20;94.20;;;;;;5068375;28;20104;-91
2020/12/14 03:34:15;;;;;;;7.45;3.47;;;6.20;94.40;;;;;;5067467;28;20128;-89
2020/12/14 03:37:01;;;;;;;8.73;2.78;;;6.20;94.20;;;;;;5045696;28;20049;-89
2020/12/14 03:39:27;;;;;;;11.48;3.33;;;6.20;93.70;;;;;;5059867;28;20390;-91
2020/12/14 03:42:13;;;;;;;11.65;3.05;;;6.30;93.40;;;;;;5030793;28;20395;-89
2020/12/14 03:44:39;;;;;;;9.25;2.83;;;6.30;93.50;;;;;;5047128;28;20052;-90
2020/12/14 03:47:05;;;;;;;8.88;3.00;;;6.30;93.60;;;;;;5067500;28;20060;-89
2020/12/14 03:49:31;;;;;;;8.35;3.00;;;6.40;94.00;;;;;;5050093;28;20504;-89
2020/12/14 03:51:56;;;;;;;7.82;3.03;;;6.40;93.50;;;;;;5030813;28;20260;-89
2020/12/14 03:54:24;;;;;;;6.75;2.70;;;6.30;93.40;;;;;;5028707;28;20049;-91
2020/12/14 03:56:50;;;;;;;11.10;2.95;;;6.30;93.10;;;;;;5050618;28;20083;-88
2020/12/14 03:59:16;;;;;;;6.03;2.58;;;6.40;93.30;;;;;;5066849;28;20072;-88
2020/12/14 04:01:42;;;;;;;8.98;3.53;;;6.40;93.20;;;;;;5066208;28;20037;-89
2020/12/14 04:04:08;;;;;;;6.80;2.83;;;6.40;93.40;;;;;;5050591;28;20107;-89
2020/12/14 04:06:34;;;;;;;11.57;3.70;;;6.40;93.30;;;;;;5066365;28;20850;-90
2020/12/14 04:09:00;;;;;;;7.93;3.08;;;6.40;94.00;;;;;;5037865;28;20131;-89
2020/12/14 04:11:26;;;;;;;7.28;3.45;;;6.40;94.10;;;;;;5038045;28;20120;-90
2020/12/14 04:14:12;;;;;;;9.88;3.30;;;6.30;94.30;;;;;;5050850;28;20124;-90
2020/12/14 04:17:00;;;;;;;16.10;3.38;;;6.30;94.50;;;;;;5042527;28;20094;-90
2020/12/14 04:19:26;;;;;;;10.68;3.28;;;6.30;94.50;;;;;;5041591;28;20040;-90
2020/12/14 04:21:52;;;;;;;4.65;2.38;;;6.20;94.50;;;;;;5083833;28;20051;-89
2020/12/14 04:24:18;;;;;;;8.73;3.05;;;6.30;94.10;;;;;;5070000;28;20048;-88
2020/12/14 04:26:44;;;;;;;8.18;3.10;;;6.20;93.90;;;;;;5071287;28;20521;-88
2020/12/14 04:29:10;;;;;;;9.82;2.92;;;6.20;93.80;;;;;;5065799;28;20515;-91
2020/12/14 04:31:36;;;;;;;9.40;2.97;;;6.20;93.80;;;;;;5051550;28;20045;-90
2020/12/14 04:34:22;;;;;;;12.55;4.03;;;6.20;93.90;;;;;;5069360;28;20483;-90
2020/12/14 04:36:49;;;;;;;7.80;3.03;;;6.20;93.80;;;;;;5071315;28;20055;-88
2020/12/14 04:39:35;;;;;;;5.32;2.47;;;6.20;94.00;;;;;;5069541;28;20045;-89
2020/12/14 04:42:01;;;;;;;8.80;3.30;;;6.20;94.60;;;;;;5053033;28;20479;-88
2020/12/14 04:44:47;;;;;;;7.82;2.80;;;6.20;94.70;;;;;;5047113;28;20052;-89
2020/12/14 04:47:14;;;;;;;8.18;2.95;;;6.20;94.60;;;;;;5064080;28;20141;-89
2020/12/14 04:50:01;;;;;;;7.22;2.75;;;6.20;94.70;;;;;;5042335;28;20045;-87
2020/12/14 04:52:28;;;;;;;12.60;2.97;;;6.20;94.50;;;;;;5069045;28;20033;-90
2020/12/14 04:55:18;;;;;;;12.55;3.97;;;6.20;94.60;;;;;;5056016;28;20040;-90
2020/12/14 04:57:43;;;;;;;9.10;2.92;;;6.10;94.80;;;;;;5053140;28;20835;-88
2020/12/14 05:00:30;;;;;;;6.38;2.88;;;6.20;94.60;;;;;;5046191;28;20047;-89
2020/12/14 05:02:56;;;;;;;12.20;3.10;;;6.20;95.10;;;;;;5063003;28;20127;-88
2020/12/14 05:05:23;;;;;;;19.88;2.65;;;6.10;94.70;;;;;;5052269;28;20041;-87
2020/12/14 05:08:10;;;;;;;9.57;3.38;;;6.10;94.80;;;;;;5042213;28;20060;-87
2020/12/14 05:10:36;;;;;;;11.13;3.13;;;6.20;94.90;;;;;;5051385;28;20041;-90
2020/12/14 05:13:09;;;;;;;10.50;3.17;;;6.20;94.90;;;;;;5050435;28;20115;-89
2020/12/14 05:15:40;;;;;;;9.75;3.50;;;6.20;94.80;;;;;;5049849;28;20477;-89
2020/12/14 05:18:09;;;;;;;12.07;3.10;;;6.20;94.70;;;;;;5049278;28;20120;-89
2020/12/14 05:20:35;;;;;;;11.88;3.03;;;6.30;94.70;;;;;;5065218;28;20068;-91
2020/12/14 05:23:06;;;;;;;11.23;2.53;;;6.20;94.50;;;;;;5049579;28;20041;-91
2020/12/14 05:25:33;;;;;;;13.63;2.90;;;6.30;94.60;;;;;;5065324;28;20550;-90
2020/12/14 05:28:12;;;;;;;9.00;3.13;;;6.30;94.60;;;;;;5066152;28;20049;-90
2020/12/14 05:30:47;;;;;;;11.15;3.60;;;6.40;94.50;;;;;;5065014;28;20045;-91
2020/12/14 05:33:18;;;;;;;7.38;3.15;;;6.30;94.60;;;;;;5049856;28;20033;-89
2020/12/14 05:35:44;;;;;;;7.82;2.42;;;6.30;94.60;;;;;;5048037;28;20037;-89
2020/12/14 05:38:31;;;;;;;12.50;2.92;;;6.30;94.60;;;;;;5041694;28;20047;-90
2020/12/14 05:41:03;;;;;;;12.82;3.08;;;6.30;94.80;;;;;;5056779;28;20037;-90
2020/12/14 05:43:30;;;;;;;10.85;2.88;;;6.30;95.00;;;;;;5047932;28;20469;-90
2020/12/14 05:46:10;;;;;;;9.45;3.80;;;6.20;95.00;;;;;;5050229;28;20102;-90
2020/12/14 05:48:36;;;;;;;9.98;3.88;;;6.20;95.50;;;;;;5049130;28;20071;-88
2020/12/14 05:51:25;;;;;;;10.02;3.20;;;6.20;95.50;;;;;;5049270;28;20390;-90
2020/12/14 05:54:12;;;;;;;5.13;2.78;;;6.20;95.70;;;;;;5029464;28;20041;-90
2020/12/14 05:56:38;;;;;;;16.55;3.92;;;6.20;95.80;;;;;;5045381;28;20048;-92
2020/12/14 05:59:26;;;;;;;8.65;3.22;;;6.20;95.80;;;;;;5025476;28;20416;-88
2020/12/14 06:01:52;;;;;;;10.45;3.53;;;6.20;95.80;;;;;;5048155;28;20625;-89
2020/12/14 06:04:20;;;;;;;14.82;4.32;;;6.00;95.60;;;;;;5065597;28;20048;-92
2020/12/14 06:07:11;;;;;;;12.32;3.28;;;6.20;95.80;;;;;;5033150;28;20051;-91
2020/12/14 06:09:38;;;;;;;9.13;4.60;;;6.10;95.70;;;;;;5057410;28;20064;-91
2020/12/14 06:12:28;;;;;;;9.70;2.92;;;6.20;95.90;;;;;;5026870;28;20050;-89
2020/12/14 06:14:59;;;;;;;16.03;3.93;;;6.10;96.00;;;;;;5049003;28;20581;-92
2020/12/14 06:17:55;;;;;;;9.57;2.88;;;6.10;96.10;;;;;;5047539;28;20060;-94
2020/12/14 06:20:44;;;;;;;9.43;3.00;;;6.10;96.30;;;;;;5047946;28;20133;-96
2020/12/14 06:23:11;;;;;;;16.50;3.80;;;6.10;96.40;;;;;;5045655;28;20460;-95
2020/12/14 06:25:39;;;;;;;11.35;3.58;;;6.10;96.60;;;;;;5063842;28;20067;-96
2020/12/14 06:28:30;;;;;;;12.43;3.63;;;6.10;96.60;;;;;;5048567;28;20053;-94
2020/12/14 06:30:57;;;;;;;14.05;4.15;;;6.00;96.50;;;;;;5048220;28;20049;-94
2020/12/14 06:33:33;;;;;;;8.82;3.65;;;6.10;96.60;;;;;;5062373;28;20044;-95
2020/12/14 06:36:18;;;;;;;10.00;3.50;;;6.10;96.80;;;;;;5064116;28;20109;-93
2020/12/14 06:38:46;;;;;;;13.55;4.22;;;6.10;97.10;;;;;;5061482;28;20060;-94
2020/12/14 06:41:20;;;;;;;11.30;4.28;;;6.10;97.00;;;;;;5052461;28;20056;-94
2020/12/14 06:44:09;;;;;;;10.38;4.07;;;6.10;97.30;;;;;;5048259;28;20420;-93
2020/12/14 06:46:36;;;;;;;9.38;4.15;;;6.00;97.60;;;;;;5048112;28;20080;-93
2020/12/14 06:49:02;;;;;;;15.20;5.15;;;6.10;97.80;;;;;;5051040;28;20040;-92
2020/12/14 06:51:58;;;;;;;19.77;5.55;;;6.00;98.00;;;;;;5051041;28;20076;-92
2020/12/14 06:54:46;;;;;;;11.77;5.20;;;6.00;98.00;;;;;;5059911;28;20998;-94
2020/12/14 06:57:14;;;;;;;12.07;4.57;;;6.00;98.10;;;;;;5018958;28;20053;-95
2020/12/14 06:59:51;;;;;;;14.35;5.07;;;6.00;98.30;;;;;;5045704;28;20048;-94
2020/12/14 07:02:17;;;;;;;9.55;3.63;;;5.90;98.40;;;;;;5031611;28;20149;-93
2020/12/14 07:04:47;;;;;;;9.25;3.88;;;6.00;98.60;;;;;;5027251;28;20059;-93
2020/12/14 07:07:13;;;;;;;10.93;4.35;;;6.00;98.60;;;;;;5031370;28;20069;-92
2020/12/14 07:10:10;;;;;;;12.55;4.45;;;5.90;98.60;;;;;;5026297;28;20098;-93
2020/12/14 07:12:41;;;;;;;11.50;4.80;;;6.00;98.70;;;;;;5051247;28;20045;-92
2020/12/14 07:15:07;;;;;;;12.68;4.97;;;5.90;98.70;;;;;;5068597;28;20037;-91
2020/12/14 07:17:35;;;;;;;13.63;5.50;;;6.00;98.80;;;;;;5049298;28;20071;-91
2020/12/14 07:20:02;;;;;;;17.42;6.95;;;6.00;98.90;;;;;;5050517;28;20040;-91
2020/12/14 07:22:47;;;;;;;10.20;6.50;;;6.00;99.00;;;;;;5032420;28;20051;-92
2020/12/14 07:25:34;;;;;;;19.92;7.18;;;6.10;99.40;;;;;;5035849;28;20060;-92
2020/12/14 07:28:03;;;;;;;13.48;7.20;;;6.00;99.30;;;;;;5040391;28;20098;-91
2020/12/14 07:30:32;;;;;;;16.85;8.02;;;6.10;99.60;;;;;;5071997;28;20058;-90
2020/12/14 07:32:59;;;;;;;21.95;8.95;;;6.10;99.60;;;;;;5070666;28;20071;-90
2020/12/14 07:35:25;;;;;;;17.15;8.35;;;6.10;99.60;;;;;;5054481;28;20067;-89
2020/12/14 07:37:51;;;;;;;14.40;8.73;;;6.20;99.80;;;;;;5061755;28;20705;-90
2020/12/14 07:40:17;;;;;;;14.55;9.80;;;6.20;99.70;;;;;;5053860;28;20051;-91
2020/12/14 07:42:44;;;;;;;13.40;8.50;;;6.20;99.70;;;;;;5055852;28;20111;-89
2020/12/14 07:45:11;;;;;;;14.40;9.65;;;6.30;99.80;;;;;;5049188;28;20037;-90
2020/12/14 07:47:56;;;;;;;13.52;8.40;;;6.30;99.80;;;;;;5032928;28;20045;-91
2020/12/14 07:50:42;;;;;;;19.70;9.00;;;6.20;99.80;;;;;;5016267;28;20048;-90
2020/12/14 07:53:08;;;;;;;16.58;8.90;;;6.20;99.80;;;;;;5054337;28;20049;-92
2020/12/14 07:56:02;;;;;;;21.77;10.27;;;6.40;99.80;;;;;;5047977;28;20048;-90
2020/12/14 07:58:30;;;;;;;14.00;10.13;;;6.30;99.80;;;;;;5064945;28;20445;-89
2020/12/14 08:01:13;;;;;;;21.85;10.93;;;6.30;99.80;;;;;;5043726;28;20049;-90
2020/12/14 08:03:39;;;;;;;15.15;8.30;;;6.20;99.80;;;;;;5045403;28;20464;-91
2020/12/14 08:06:12;;;;;;;13.15;9.05;;;6.30;99.80;;;;;;5029359;28;20061;-91
2020/12/14 08:08:40;;;;;;;15.82;7.97;;;6.30;99.80;;;;;;5016585;28;20119;-91
2020/12/14 08:11:08;;;;;;;12.93;8.57;;;6.40;99.80;;;;;;5036020;28;20041;-92
2020/12/14 08:13:35;;;;;;;17.85;8.88;;;6.40;99.70;;;;;;5039564;28;20071;-90
2020/12/14 08:16:08;;;;;;;9.52;7.07;;;6.40;99.70;;;;;;5037682;28;20447;-91
2020/12/14 08:18:36;;;;;;;14.75;7.97;;;6.50;99.70;;;;;;5061861;28;20476;-90
2020/12/14 08:21:26;;;;;;;20.83;9.13;;;6.70;99.80;;;;;;5067342;28;20373;-90
2020/12/14 08:23:54;;;;;;;13.75;8.63;;;6.50;99.80;;;;;;5044522;28;20757;-89
2020/12/14 08:26:30;;;;;;;21.77;8.85;;;6.50;99.70;;;;;;5059090;28;20517;-89
2020/12/14 08:29:19;;;;;;;18.00;10.00;;;6.60;99.80;;;;;;5047297;28;20052;-89
2020/12/14 08:31:50;;;;;;;14.90;8.30;;;6.50;99.80;;;;;;5034815;28;20049;-89
2020/12/14 08:34:31;;;;;;;16.85;8.43;;;6.60;99.70;;;;;;5051560;28;20044;-90
2020/12/14 08:36:57;;;;;;;18.90;8.77;;;6.50;99.70;;;;;;5046496;28;20134;-88
2020/12/14 08:39:43;;;;;;;15.50;9.15;;;6.50;99.70;;;;;;5041189;28;20143;-90
2020/12/14 08:42:14;;;;;;;19.23;9.70;;;6.60;99.80;;;;;;5063482;28;20053;-90
2020/12/14 08:45:08;;;;;;;22.50;9.45;;;6.60;99.80;;;;;;5031947;28;20059;-89
2020/12/14 08:48:01;;;;;;;17.73;9.90;;;6.70;99.80;;;;;;5043276;28;20044;-88
2020/12/14 08:50:28;;;;;;;13.38;9.30;;;6.70;99.90;;;;;;5053165;28;20048;-89
2020/12/14 08:53:06;;;;;;;11.55;8.68;;;6.80;99.90;;;;;;5056693;28;20049;-89
2020/12/14 08:55:39;;;;;;;16.30;9.32;;;6.70;99.80;;;;;;5033258;28;20057;-88
2020/12/14 08:58:06;;;;;;;15.15;9.98;;;6.80;99.80;;;;;;5033014;28;20083;-90
2020/12/14 09:00:32;;;;;;;20.27;10.65;;;6.80;99.90;;;;;;5049832;28;20048;-89
2020/12/14 09:03:01;;;;;;;18.38;8.57;;;6.80;99.80;;;;;;5033419;28;20461;-90
2020/12/14 09:05:36;;;;;;;17.30;7.65;;;6.90;99.90;;;;;;5039232;28;20068;-90
2020/12/14 09:08:18;;;;;;;14.02;7.78;;;6.90;99.90;;;;;;5044297;28;20048;-90
2020/12/14 09:10:57;;;;;;;11.30;7.30;;;6.90;99.70;;;;;;5044641;28;20049;-90
2020/12/14 09:13:50;;;;;;;16.58;7.35;;;6.90;99.60;;;;;;5041433;28;20120;-91
2020/12/14 09:16:39;;;;;;;10.98;6.43;;;7.00;99.80;;;;;;5021387;28;20523;-90
2020/12/14 09:19:05;;;;;;;16.25;6.88;;;7.00;99.70;;;;;;5038495;28;20045;-90
2020/12/14 09:21:32;;;;;;;7.78;5.68;;;7.00;99.70;;;;;;5029060;28;20033;-90
2020/12/14 09:24:08;;;;;;;10.32;6.70;;;7.00;99.60;;;;;;5018493;28;20429;-90
2020/12/14 09:27:11;;;;;;;15.43;8.13;;;7.10;99.60;;;;;;5027472;28;20102;-90
2020/12/14 09:29:38;;;;;;;20.90;8.80;;;7.10;99.70;;;;;;5032080;28;20044;-90
2020/12/14 09:32:06;;;;;;;12.70;8.30;;;7.10;99.70;;;;;;5018867;28;20393;-90
2020/12/14 09:34:52;;;;;;;13.32;7.68;;;7.10;99.80;;;;;;5028727;28;20049;-91
2020/12/14 09:37:18;;;;;;;14.30;7.47;;;7.20;99.80;;;;;;5046977;28;20041;-90
2020/12/14 09:39:45;;;;;;;11.73;7.35;;;7.20;99.80;;;;;;5046275;28;20452;-91
2020/12/14 09:42:11;;;;;;;17.40;8.88;;;7.20;99.80;;;;;;5049675;28;20071;-90
2020/12/14 09:44:57;;;;;;;15.23;7.95;;;7.30;99.90;;;;;;5058412;28;20100;-90
2020/12/14 09:47:23;;;;;;;13.68;8.43;;;7.20;99.90;;;;;;5061217;28;20033;-89
2020/12/14 09:49:49;;;;;;;12.13;8.18;;;7.30;99.90;;;;;;5061514;28;20454;-90
2020/12/14 09:52:15;;;;;;;13.13;9.02;;;7.30;99.90;;;;;;5028987;28;20152;-91
2020/12/14 09:54:51;;;;;;;18.20;9.30;;;7.30;99.90;;;;;;5047789;28;20084;-91
2020/12/14 09:57:25;;;;;;;16.00;9.95;;;7.50;99.90;;;;;;5019537;28;20053;-91
2020/12/14 09:59:52;;;;;;;13.80;10.00;;;7.50;99.90;;;;;;5019466;28;20044;-91
2020/12/14 10:02:40;;;;;;;12.73;10.95;;;7.50;99.90;;;;;;5042964;28;20051;-91
2020/12/14 10:05:12;;;;;;;15.93;10.68;;;7.50;99.90;;;;;;5035931;28;20439;-91
2020/12/14 10:12:04;;;;;;;14.10;9.63;;;7.70;99.90;;;;;;5003833;28;20045;-90
2020/12/14 10:17:51;;;;;;;18.25;10.65;;;7.70;99.90;;;;;;5043720;28;20055;-90
2020/12/14 10:21:36;;;;;;;;;;;;;;;;;;;;;
2020/12/14 10:24:59;;;;;;;17.98;11.07;;;7.80;99.80;;;;;;5008608;28;20100;-90
2020/12/14 10:27:43;;;;;;;18.42;12.38;;;7.90;99.90;;;;;;5030538;28;20054;-91
2020/12/14 10:30:22;;;;;;;15.98;11.50;;;8.00;99.90;;;;;;5027784;28;20064;-90
2020/12/14 10:36:11;;;;;;;13.38;11.55;;;8.00;99.90;;;;;;4998954;28;20068;-90
2020/12/14 10:38:38;;;;;;;18.58;12.75;;;8.10;99.90;;;;;;5029223;28;20457;-88
2020/12/14 10:41:04;;;;;;;17.50;12.63;;;8.10;99.90;;;;;;5033169;28;20107;-88
2020/12/14 10:43:50;;;;;;;20.58;13.50;;;8.20;99.90;;;;;;5035998;28;20409;-90
2020/12/14 10:46:17;;;;;;;20.17;12.57;;;8.30;99.90;;;;;;5018035;28;20036;-87
2020/12/14 10:49:03;;;;;;;14.95;12.43;;;8.30;99.80;;;;;;5043423;28;20045;-87
2020/12/14 10:51:29;;;;;;;20.50;12.30;;;8.40;99.80;;;;;;5046387;28;20041;-90
2020/12/14 10:53:55;;;;;;;13.48;11.32;;;8.40;99.80;;;;;;5014710;28;20045;-88
2020/12/14 10:56:40;;;;;;;17.30;12.13;;;8.40;99.80;;;;;;5031095;28;20481;-88
2020/12/14 10:59:06;;;;;;;13.45;11.45;;;8.50;99.80;;;;;;5028019;28;20136;-89
2020/12/14 11:01:32;;;;;;;20.25;11.68;;;8.50;99.60;;;;;;5031221;28;20051;-89
2020/12/14 11:03:58;;;;;;;13.43;11.30;;;8.60;99.60;;;;;;5015485;28;20048;-89
2020/12/14 11:06:44;;;;;;;15.00;10.65;;;8.60;99.50;;;;;;5030871;28;20048;-89
2020/12/14 11:09:10;;;;;;;13.68;9.73;;;8.70;99.60;;;;;;5025644;28;20033;-89
2020/12/14 11:11:56;;;;;;;17.10;10.68;;;8.70;99.60;;;;;;5016357;28;20041;-89
2020/12/14 11:14:22;;;;;;;12.60;9.50;;;8.80;99.60;;;;;;5049416;28;20044;-90
2020/12/14 11:16:48;;;;;;;15.93;10.35;;;8.80;99.50;;;;;;5051907;28;20057;-89
2020/12/14 11:19:14;;;;;;;10.85;9.65;;;8.80;99.50;;;;;;5055484;28;20117;-88
2020/12/14 11:21:40;;;;;;;13.68;9.27;;;9.00;99.50;;;;;;5068451;28;20506;-90
2020/12/14 11:24:07;;;;;;;14.32;9.63;;;9.00;99.50;;;;;;5059816;28;20039;-89
2020/12/14 11:26:33;;;;;;;12.75;9.48;;;9.00;99.40;;;;;;5022354;28;20109;-89
2020/12/14 11:28:59;;;;;;;9.43;8.20;;;9.10;99.50;;;;;;5043616;28;20534;-89
2020/12/14 11:31:27;;;;;;;13.13;9.38;;;9.10;99.30;;;;;;5046315;28;20062;-89
2020/12/14 11:33:53;;;;;;;13.02;8.63;;;9.20;99.40;;;;;;5042413;28;20724;-90
2020/12/14 11:36:23;;;;;;;8.82;7.97;;;9.20;99.20;;;;;;5051524;28;20048;-89
2020/12/14 11:38:49;;;;;;;;;;;9.30;99.20;;;;;;5073073;28;20063;-89
2020/12/14 11:41:35;;;;;;;10.63;7.68;;;9.40;99.10;;;;;;5054549;28;19946;-89
2020/12/14 11:44:01;;;;;;;11.70;8.05;;;9.40;99.20;;;;;;5060138;28;20049;-89
2020/12/14 11:46:27;;;;;;;10.52;6.53;;;9.50;99.10;;;;;;5051834;28;20462;-87
2020/12/14 11:48:53;;;;;;;8.85;6.78;;;9.60;98.70;;;;;;5030453;28;20125;-91
2020/12/14 11:51:52;;;;;;;8.35;6.80;;;9.60;98.80;;;;;;5036577;28;20041;-94
2020/12/14 11:54:53;;;;;;;8.52;5.90;;;9.70;98.80;;;;;;5019665;28;20501;-94
2020/12/14 11:57:24;;;;;;;7.63;5.18;;;9.80;98.70;;;;;;5028015;28;20083;-89
2020/12/14 11:59:50;;;;;;;6.90;5.85;;;9.80;98.50;;;;;;5064671;28;20044;-90
2020/12/14 12:02:16;;;;;;;7.45;5.60;;;9.90;98.60;;;;;;5062620;28;20032;-87
2020/12/14 12:05:02;;;;;;;14.25;5.75;;;10.00;98.30;;;;;;5069512;28;20044;-88
2020/12/14 12:07:33;;;;;;;6.75;5.95;;;10.00;98.30;;;;;;5068302;28;20510;-89
2020/12/14 12:10:11;;;;;;;6.40;5.72;;;10.00;98.20;;;;;;5020066;28;20048;-89
2020/12/14 12:12:40;;;;;;;6.82;5.47;;;10.00;98.50;;;;;;5035477;28;20056;-90
2020/12/14 12:15:06;;;;;;;9.90;5.47;;;10.10;98.10;;;;;;5038352;28;20048;-89
2020/12/14 12:17:32;;;;;;;7.68;5.63;;;10.10;98.10;;;;;;5042879;28;20054;-88
2020/12/14 12:19:59;;;;;;;5.97;4.78;;;10.10;98.10;;;;;;5047900;28;20042;-89
2020/12/14 12:22:44;;;;;;;7.40;4.65;;;10.10;97.60;;;;;;5049554;28;20052;-89
2020/12/14 12:25:10;;;;;;;6.60;4.78;;;10.10;98.00;;;;;;5061917;28;20091;-88
2020/12/14 12:27:36;;;;;;;8.90;5.07;;;10.10;98.00;;;;;;5056052;28;20063;-88
2020/12/14 12:30:03;;;;;;;8.55;5.03;;;10.10;98.00;;;;;;5045797;28;20052;-89
2020/12/14 12:32:52;;;;;;;4.93;4.32;;;10.20;98.00;;;;;;5039171;28;20452;-90
2020/12/14 12:35:18;;;;;;;6.22;5.10;;;10.20;97.90;;;;;;5029728;28;20049;-90
2020/12/14 12:38:09;;;;;;;5.25;4.70;;;10.20;97.80;;;;;;5050002;28;20482;-90
2020/12/14 12:40:35;;;;;;;7.85;4.57;;;10.20;97.60;;;;;;5030455;28;20079;-91
2020/12/14 12:43:06;;;;;;;7.22;4.75;;;10.20;97.90;;;;;;5046852;28;20041;-90
2020/12/14 12:45:52;;;;;;;6.70;4.15;;;10.20;97.90;;;;;;5061667;28;20076;-90
2020/12/14 12:48:38;;;;;;;9.40;4.10;;;10.30;97.70;;;;;;5051735;28;20049;-90
2020/12/14 12:51:07;;;;;;;10.65;4.28;;;10.30;97.60;;;;;;5062893;28;20060;-90
2020/12/14 12:53:33;;;;;;;6.95;4.22;;;10.30;97.60;;;;;;5038749;28;20110;-91
2020/12/14 12:55:59;;;;;;;4.43;4.00;;;10.30;97.50;;;;;;5030381;28;20552;-93
2020/12/14 12:58:27;;;;;;;7.10;4.40;;;10.30;97.60;;;;;;5044412;28;20463;-91
2020/12/14 13:00:53;;;;;;;6.07;4.32;;;10.20;97.60;;;;;;5032458;28;20053;-91
2020/12/14 13:03:22;;;;;;;6.55;5.00;;;10.30;97.60;;;;;;5047284;28;20680;-90
2020/12/14 13:06:08;;;;;;;5.60;3.97;;;10.20;97.60;;;;;;5020144;28;20069;-92
2020/12/14 13:08:46;;;;;;;6.07;4.70;;;10.30;97.60;;;;;;5051693;28;20048;-90
2020/12/14 13:11:39;;;;;;;7.00;4.15;;;10.30;97.70;;;;;;5024351;28;20049;-90
2020/12/14 13:14:24;;;;;;;6.18;4.60;;;10.30;97.40;;;;;;5049306;28;20059;-91
2020/12/14 13:16:59;;;;;;;10.23;4.00;;;10.30;97.60;;;;;;5049273;28;20049;-91
2020/12/14 13:19:48;;;;;;;4.13;3.83;;;10.30;97.50;;;;;;5043178;28;20059;-91
2020/12/14 13:22:37;;;;;;;5.93;4.32;;;10.30;97.50;;;;;;5029063;28;20158;-91
2020/12/14 13:25:06;;;;;;;7.82;4.45;;;10.30;97.50;;;;;;5041181;28;20117;-91
2020/12/14 13:27:32;;;;;;;5.15;4.50;;;10.30;97.50;;;;;;5047965;28;20044;-91
2020/12/14 13:30:07;;;;;;;6.03;4.38;;;10.30;97.30;;;;;;5058464;28;20476;-92
2020/12/14 13:33:18;;;;;;;4.60;4.20;;;10.30;97.50;;;;;;5022504;28;20099;-92
2020/12/14 14:29:44;;;;;;;;;;;;;;;;;;;;;
2020/12/14 14:33:08;;;;;;;;;;;;;;;;;;;;;